Historique des mesures à Cassis (13260), France
Quotidien Résumé Juillet 7, 2017 Unités:  Métrique    US   Métrique/US
« Précédent (Jour)
Suivant (Jour) »
Quotidien Hebdomadaire Mensuel Annuel Période au choix
  Maximum: Minimum: Moyenne:
Température: TemperatureC °C 22.5 °C 26.5 °C
Point de rosée: DewpointC °C 9.9 °C 12.8 °C
Humidité: Humidity % 31 % 40 %
Vitesse du vent: 0 km/h 0 km/h 4.8 km/h
Rafales: 0 km/h - -
Vent:- - South
Pression: PressurehPa hPa 1013.1 hPa -
Précipitations: 0.0 mm    
Historical Graphs
 
 
Mesures pour : Juillet 7, 2017
Heure Temperature Point de rosée Pression Vent Vitesse du vent Rafales Humidité Pluie (par heure) Conditions
TemperatureC °C DewpointC °C PressurehPa hPa Calm     Humidity % HourlyPrecipMM mm SoftwareType W/m2
00:11 24.6 °C 10.8 °C 1015.5 hPa North 2.9 km/h 2.9 km/h 42 % 0.0 mm open2300-1.11 W/m2
01:10 24.2 °C 10.1 °C 1015.8 hPa Calm     41 % 0.0 mm open2300-1.11 W/m2
02:11 24.4 °C 10.7 °C 1015.1 hPa Calm   2.9 km/h 42 % 0.0 mm open2300-1.11 W/m2
03:11 24.1 °C 10.7 °C 1015.1 hPa Calm   2.3 km/h 43 % 0.0 mm open2300-1.11 W/m2
04:10 23.5 °C 10.2 °C 1015.1 hPa Calm   1.8 km/h 43 % 0.0 mm open2300-1.11 W/m2
05:11 22.5 °C 9.9 °C 1014.8 hPa Calm   1.8 km/h 45 % 0.0 mm open2300-1.11 W/m2
06:10 22.9 °C 10.3 °C 1014.8 hPa NNE 1.8 km/h 6.4 km/h 45 % 0.0 mm open2300-1.11 W/m2
07:10 23.6 °C 10.2 °C 1014.8 hPa NNW 5.1 km/h 6.4 km/h 43 % 0.0 mm open2300-1.11 W/m2
08:11 26.1 °C 12.2 °C 1015.1 hPa SSE 3.4 km/h 3.4 km/h 42 % 0.0 mm open2300-1.11 W/m2
09:10 25.8 °C 12.2 °C 1015.8 hPa Calm   7.6 km/h 43 % 0.0 mm open2300-1.11 W/m2
10:10 27.1 °C 13.4 °C 1015.8 hPa South 7.6 km/h 9.3 km/h 43 % 0.0 mm open2300-1.11 W/m2
11:11 31.0 °C 15.0 °C 1015.8 hPa SSE 17.4 km/h 17.4 km/h 38 % 0.0 mm open2300-1.11 W/m2
12:11 32.8 °C 14.8 °C 1015.5 hPa SSE 17.9 km/h 17.9 km/h 34 % 0.0 mm open2300-1.11 W/m2
13:11 33.6 °C 14.1 °C 1015.5 hPa ESE 4.7 km/h 6.4 km/h 31 % 0.0 mm open2300-1.11 W/m2
14:11 33.4 °C 14.4 °C 1015.1 hPa SE 5.1 km/h 10.3 km/h 32 % 0.0 mm open2300-1.11 W/m2
15:11 32.6 °C 15.1 °C 1014.1 hPa SSE 12.2 km/h 12.2 km/h 35 % 0.0 mm open2300-1.11 W/m2
16:11 31.9 °C 17.3 °C 1014.1 hPa South 9.3 km/h 9.3 km/h 42 % 0.0 mm open2300-1.11 W/m2
17:11 30.8 °C 17.1 °C 1013.4 hPa SE 6.4 km/h 6.4 km/h 44 % 0.0 mm open2300-1.11 W/m2
18:11 29.9 °C 17.7 °C 1013.4 hPa SSE 8 km/h 8 km/h 48 % 0.0 mm open2300-1.11 W/m2
19:10 28.9 °C 17.2 °C 1013.1 hPa Calm   5.6 km/h 49 % 0.0 mm open2300-1.11 W/m2
20:11 28.4 °C 15.9 °C 1013.1 hPa NNW 5.6 km/h 17.9 km/h 47 % 0.0 mm open2300-1.11 W/m2
21:10 27.6 °C 13.5 °C 1013.1 hPa NW 14 km/h 14 km/h 42 % 0.0 mm open2300-1.11 W/m2
22:11 26.9 °C 13.2 °C 1013.4 hPa Calm     43 % 0.0 mm open2300-1.11 W/m2
23:11 25.8 °C 12.9 °C 1013.4 hPa Calm     45 % 0.0 mm open2300-1.11 W/m2
Observations météo à CASSIS
WU-History script by Weather Underground - 1 mb